Time;durP1;ratioP1;P1;durP2;ratioP2;P2;SDS_P1;SDS_P2;PMS_P1;PMS_P2;Temp;Humidity;BMP_temperature;BMP_pressure;BME280_temperature;BME280_humidity;BME280_pressure;Samples;Min_cycle;Max_cycle;Signal;HPM_P1;HPM_P2
2021/05/10 00:00:47;;;;;;;;;;;;;;;13.11;48.15;95606.94;4961451;28;20322;-80
2021/05/10 00:03:12;;;;;;;;;;;;;;;13.10;48.20;95607.97;4958424;28;19941;-80
2021/05/10 00:05:37;;;;;;;;;;;;;;;12.97;48.53;95608.19;4941634;28;19930;-80
2021/05/10 00:08:03;;;;;;;;;;;;;;;12.80;49.16;95612.50;4945984;28;20012;-80
2021/05/10 00:10:28;;;;;;;;;;;;;;;12.89;47.87;95616.38;4961570;28;19918;-80
2021/05/10 00:12:54;;;;;;;;;;;;;;;12.88;47.68;95615.59;4970765;23;19932;-81
2021/05/10 00:15:19;;;;;;;;;;;;;;;12.91;47.65;95612.53;4994472;28;19991;-80
2021/05/10 00:17:44;;;;;;;;;;;;;;;12.91;47.96;95606.50;4992666;28;19921;-80
2021/05/10 00:20:13;;;;;;;;;;;;;;;12.73;47.94;95617.03;4974798;28;20396;-81
2021/05/10 00:22:38;;;;;;;;;;;;;;;12.68;48.08;95614.28;4993039;28;19921;-80
2021/05/10 00:25:04;;;;;;;;;;;;;;;12.65;48.21;95617.34;4993379;28;20167;-81
2021/05/10 00:27:29;;;;;;;;;;;;;;;12.67;48.49;95623.16;5035084;22;19953;-80
2021/05/10 00:29:54;;;;;;;;;;;;;;;12.53;48.44;95623.38;4986923;28;19921;-80
2021/05/10 00:32:19;;;;;;;;;;;;;;;12.55;48.44;95621.31;4983145;28;19926;-81
2021/05/10 00:34:49;;;;;;;;;;;;;;;12.42;48.79;95611.09;4984489;28;20405;-81
2021/05/10 00:37:14;;;;;;;;;;;;;;;12.41;49.32;95619.13;4981402;28;20310;-81
2021/05/10 00:39:39;;;;;;;;;;;;;;;12.31;49.22;95619.66;4984765;28;20388;-80
2021/05/10 00:42:05;;;;;;;;;;;;;;;12.47;48.65;95610.41;4982616;28;19984;-80
2021/05/10 00:44:30;;;;;;;;;;;;;;;12.38;49.07;95609.94;5001108;28;19929;-79
2021/05/10 00:46:55;;;;;;;;;;;;;;;12.43;48.87;95612.69;4971650;28;20378;-79
2021/05/10 00:49:21;;;;;;;;;;;;;;;12.39;48.98;95611.53;4965623;28;19918;-79
2021/05/10 00:51:46;;;;;;;;;;;;;;;12.41;49.00;95608.69;4995094;28;20302;-79
2021/05/10 00:54:21;;;;;;;;;;;;;;;12.36;49.16;95609.34;4983335;28;19924;-80
2021/05/10 00:56:46;;;;;;;;;;;;;;;12.34;49.20;95603.56;4966158;28;19914;-80
2021/05/10 00:59:11;;;;;;;;;;;;;;;12.44;49.65;95603.03;4982607;28;19918;-80
2021/05/10 01:01:37;;;;;;;;;;;;;;;12.34;49.24;95608.78;4982142;28;20013;-80
2021/05/10 01:04:02;;;;;;;;;;;;;;;12.36;48.86;95611.16;4997437;28;19922;-80
2021/05/10 01:06:27;;;;;;;;;;;;;;;12.42;49.15;95602.47;4979579;28;20494;-80
2021/05/10 01:11:23;;;;;;;;;;;;;;;12.48;49.01;95599.75;5034485;23;20397;-79
2021/05/10 01:13:48;;;;;;;;;;;;;;;12.40;49.07;95597.47;4993426;28;19924;-79
2021/05/10 01:16:13;;;;;;;;;;;;;;;12.34;49.49;95598.34;4991870;28;19953;-80
2021/05/10 01:18:40;;;;;;;;;;;;;;;12.34;49.28;95598.34;4975168;28;19976;-80
2021/05/10 01:21:05;;;;;;;;;;;;;;;12.39;49.30;95601.09;4993568;28;20340;-80
2021/05/10 01:23:40;;;;;;;;;;;;;;;12.17;49.73;95602.59;4992895;28;19921;-80
2021/05/10 01:26:05;;;;;;;;;;;;;;;12.18;49.84;95598.97;4992426;28;20289;-80
2021/05/10 01:31:06;;;;;;;;;;;;;;;12.10;50.01;95602.72;5575488;22;19945;-80
2021/05/10 01:33:31;;;;;;;;;;;;;;;12.16;49.48;95595.81;4984148;28;19925;-81
2021/05/10 01:35:56;;;;;;;;;;;;;;;12.15;49.90;95591.59;4979671;28;20025;-81
2021/05/10 01:38:22;;;;;;;;;;;;;;;12.00;50.06;95592.81;5033145;23;19925;-81
2021/05/10 01:40:47;;;;;;;;;;;;;;;12.05;50.36;95593.97;5008050;23;20015;-81
2021/05/10 01:43:15;;;;;;;;;;;;;;;12.12;49.87;95592.84;4993401;28;19932;-81
2021/05/10 01:45:40;;;;;;;;;;;;;;;11.99;50.51;95595.63;4992189;28;19917;-80
2021/05/10 01:48:06;;;;;;;;;;;;;;;11.86;50.74;95585.38;4993474;28;19960;-80
2021/05/10 01:50:31;;;;;;;;;;;;;;;11.87;50.79;95586.97;4982707;28;19914;-79
2021/05/10 01:52:57;;;;;;;;;;;;;;;11.89;50.17;95585.75;5013097;28;19917;-80
2021/05/10 01:55:22;;;;;;;;;;;;;;;11.94;50.74;95591.09;5017016;28;19922;-80
2021/05/10 01:57:51;;;;;;;;;;;;;;;12.01;49.85;95591.78;4997507;28;19921;-81
2021/05/10 02:00:21;;;;;;;;;;;;;;;11.79;50.63;95595.91;4996974;22;19998;-81
2021/05/10 02:02:46;;;;;;;;;;;;;;;11.59;51.06;95587.50;5076390;23;19980;-80
2021/05/10 02:05:21;;;;;;;;;;;;;;;11.43;51.82;95597.50;4982044;28;20399;-80
2021/05/10 02:07:50;;;;;;;;;;;;;;;11.32;52.14;95600.00;4992066;28;20429;-79
2021/05/10 02:10:23;;;;;;;;;;;;;;;11.28;52.34;95599.66;5005050;28;20482;-79
2021/05/10 02:12:52;;;;;;;;;;;;;;;11.37;52.79;95602.75;4982641;28;19999;-79
2021/05/10 02:15:23;;;;;;;;;;;;;;;11.43;52.20;95599.31;4980170;28;20282;-79
2021/05/10 02:20:24;;;;;;;;;;;;;;;11.18;53.19;95590.75;4608308;26;19922;-79
2021/05/10 02:23:08;;;;;;;;;;;;;;;11.13;53.60;95591.41;4972779;28;20295;-82
2021/05/10 02:25:35;;;;;;;;;;;;;;;11.00;53.46;95601.94;4969777;28;19918;-80
2021/05/10 02:28:00;;;;;;;;;;;;;;;10.95;54.26;95604.41;4975229;28;19918;-81
2021/05/10 02:30:26;;;;;;;;;;;;;;;10.94;54.37;95608.00;4974003;28;19988;-81
2021/05/10 02:32:52;;;;;;;;;;;;;;;10.96;54.42;95613.78;4975435;28;20459;-82
2021/05/10 02:35:17;;;;;;;;;;;;;;;10.84;54.08;95603.28;4956261;28;19918;-80
2021/05/10 02:37:43;;;;;;;;;;;;;;;10.87;53.80;95607.25;4956141;28;19918;-81
2021/05/10 02:40:08;;;;;;;;;;;;;;;10.81;54.47;95604.50;4973682;28;19925;-81
2021/05/10 02:42:37;;;;;;;;;;;;;;;10.83;55.03;95602.47;4970966;28;20386;-82
2021/05/10 02:45:03;;;;;;;;;;;;;;;10.87;54.34;95608.06;4952961;28;19917;-81
2021/05/10 02:47:29;;;;;;;;;;;;;;;10.85;54.74;95610.06;4973128;28;20381;-82
2021/05/10 02:49:54;;;;;;;;;;;;;;;10.77;55.01;95607.75;4972034;28;19925;-81
2021/05/10 02:52:20;;;;;;;;;;;;;;;10.87;54.19;95609.84;4971776;28;20480;-81
2021/05/10 02:54:45;;;;;;;;;;;;;;;10.95;54.09;95609.59;4970658;28;19918;-81
2021/05/10 02:57:10;;;;;;;;;;;;;;;10.90;55.12;95612.03;4972140;28;19924;-81
2021/05/10 02:59:36;;;;;;;;;;;;;;;10.80;55.21;95615.94;4955532;28;19914;-81
2021/05/10 03:02:01;;;;;;;;;;;;;;;10.80;55.09;95615.94;4972675;28;19918;-80
2021/05/10 03:04:26;;;;;;;;;;;;;;;10.79;54.94;95616.94;4972567;28;19949;-79
2021/05/10 03:06:52;;;;;;;;;;;;;;;10.88;55.08;95614.03;4972450;28;19918;-79
2021/05/10 03:09:17;;;;;;;;;;;;;;;10.99;53.91;95616.75;4970930;28;19925;-79
2021/05/10 03:11:42;;;;;;;;;;;;;;;11.03;54.75;95611.91;4971148;28;19921;-79
2021/05/10 03:14:08;;;;;;;;;;;;;;;11.03;54.16;95617.13;4970667;28;19921;-79
2021/05/10 03:16:33;;;;;;;;;;;;;;;11.19;54.07;95618.38;4973574;28;20404;-80
2021/05/10 03:18:59;;;;;;;;;;;;;;;11.30;54.02;95620.28;4975650;28;19922;-80
2021/05/10 03:21:24;;;;;;;;;;;;;;;11.28;53.80;95622.28;4975498;28;19918;-79
2021/05/10 03:23:49;;;;;;;;;;;;;;;11.12;53.84;95621.03;4958204;28;19953;-79
2021/05/10 03:26:14;;;;;;;;;;;;;;;11.07;54.30;95618.31;4974236;28;19983;-79
2021/05/10 03:28:40;;;;;;;;;;;;;;;11.13;54.04;95620.03;4957061;28;20063;-79
2021/05/10 03:31:05;;;;;;;;;;;;;;;11.11;54.44;95616.84;4980199;28;19924;-79
2021/05/10 03:33:30;;;;;;;;;;;;;;;10.99;54.28;95610.75;4984018;28;19917;-79
2021/05/10 03:35:56;;;;;;;;;;;;;;;11.11;54.09;95624.66;4975396;28;20436;-79
2021/05/10 03:38:21;;;;;;;;;;;;;;;11.17;54.54;95623.00;4975699;28;19953;-80
2021/05/10 03:40:46;;;;;;;;;;;;;;;11.24;53.54;95623.75;4978640;28;19922;-80
2021/05/10 03:43:12;;;;;;;;;;;;;;;11.27;53.56;95625.91;4961410;28;19918;-82
2021/05/10 03:45:38;;;;;;;;;;;;;;;11.26;53.96;95627.72;4977235;28;19938;-84
2021/05/10 03:48:03;;;;;;;;;;;;;;;11.38;53.07;95630.38;4962305;28;19929;-81
2021/05/10 03:50:28;;;;;;;;;;;;;;;11.48;53.01;95635.09;4979190;28;19922;-81
2021/05/10 03:52:54;;;;;;;;;;;;;;;11.68;53.05;95641.69;4980688;28;20310;-81
2021/05/10 03:55:20;;;;;;;;;;;;;;;11.66;52.30;95637.69;4978318;28;20386;-84
2021/05/10 03:57:45;;;;;;;;;;;;;;;11.77;52.83;95636.97;4961341;28;19928;-83
2021/05/10 04:00:11;;;;;;;;;;;;;;;11.88;51.96;95644.09;4977989;28;20016;-83
2021/05/10 04:02:37;;;;;;;;;;;;;;;12.06;51.33;95658.13;5030703;22;20025;-82
2021/05/10 04:15:41;;;;;;;;;;;;;;;22.64;28.58;95639.63;4987424;28;19932;-81
2021/05/10 04:18:07;;;;;;;;;;;;;;;24.11;26.65;95644.31;4989216;28;19917;-82
2021/05/10 04:20:32;;;;;;;;;;;;;;;25.79;24.12;95648.41;4989445;28;19917;-83
2021/05/10 04:22:57;;;;;;;;;;;;;;;27.11;22.15;95642.66;4968331;28;20275;-81
2021/05/10 04:25:22;;;;;;;;;;;;;;;27.93;21.26;95643.38;4988013;28;20059;-83
2021/05/10 04:27:48;;;;;;;;;;;;;;;29.20;19.40;95646.63;4965902;28;20127;-83
2021/05/10 04:30:14;;;;;;;;;;;;;;;30.42;18.48;95643.31;4983040;28;19929;-83
2021/05/10 04:32:39;;;;;;;;;;;;;;;31.56;17.02;95639.22;4993577;28;19967;-84
2021/05/10 04:35:05;;;;;;;;;;;;;;;32.43;16.32;95638.25;4993455;28;19921;-85
2021/05/10 04:37:33;;;;;;;;;;;;;;;33.12;15.76;95641.22;4970039;28;19957;-84
2021/05/10 04:39:58;;;;;;;;;;;;;;;34.34;15.27;95654.91;4984460;28;20012;-84
2021/05/10 04:42:39;;;;;;;;;;;;;;;35.50;13.97;95638.63;4984330;28;19922;-83
2021/05/10 04:45:05;;;;;;;;;;;;;;;36.26;12.93;95644.25;4968975;28;19943;-83
2021/05/10 04:47:36;;;;;;;;;;;;;;;36.34;12.82;95648.63;4985796;28;20384;-83
2021/05/10 04:50:20;;;;;;;;;;;;;;;37.28;12.20;95649.88;5030119;22;20306;-83
2021/05/10 04:55:20;;;;;;;;;;;;;;;38.84;11.24;95655.28;5449895;22;19922;-84
2021/05/10 04:57:45;;;;;;;;;;;;;;;39.19;10.83;95654.38;5000367;28;19976;-81
2021/05/10 05:00:11;;;;;;;;;;;;;;;39.60;10.38;95656.53;4984744;28;19930;-81
2021/05/10 05:02:37;;;;;;;;;;;;;;;40.39;10.04;95651.22;4967212;28;19928;-81
2021/05/10 05:05:02;;;;;;;;;;;;;;;40.76;9.90;95653.97;4965759;28;19914;-81
2021/05/10 05:07:28;;;;;;;;;;;;;;;41.06;9.20;95650.53;4964369;28;19926;-81
2021/05/10 05:09:53;;;;;;;;;;;;;;;41.42;8.87;95647.34;4988550;28;19928;-82
2021/05/10 05:12:18;;;;;;;;;;;;;;;41.84;8.73;95653.38;4984222;28;19918;-81
2021/05/10 05:14:43;;;;;;;;;;;;;;;42.36;8.91;95652.91;5109272;23;19960;-81
2021/05/10 05:17:09;;;;;;;;;;;;;;;42.18;8.84;95651.28;4995277;28;20356;-82
2021/05/10 05:19:34;;;;;;;;;;;;;;;42.22;8.91;95653.94;4985711;28;19917;-82
2021/05/10 05:21:59;;;;;;;;;;;;;;;42.96;8.33;95645.56;4985904;28;19945;-81
2021/05/10 05:24:24;;;;;;;;;;;;;;;42.98;8.42;95646.69;4987692;28;19918;-81
2021/05/10 05:26:50;;;;;;;;;;;;;;;43.51;8.01;95654.97;4986577;28;19934;-81
2021/05/10 05:29:19;;;;;;;;;;;;;;;43.99;7.34;95641.31;4988203;28;19961;-80
2021/05/10 05:31:44;;;;;;;;;;;;;;;44.30;7.32;95654.69;4998284;28;19913;-80
2021/05/10 05:34:10;;;;;;;;;;;;;;;44.21;7.29;95649.03;5006028;28;19921;-81
2021/05/10 05:37:05;;;;;;;;;;;;;;;;;;;;;
2021/05/10 05:39:31;;;;;;;;;;;;;;;45.51;6.81;95650.53;4971285;28;19925;-82
2021/05/10 05:42:05;;;;;;;;;;;;;;;45.86;6.21;95651.44;4985693;28;19941;-82
2021/05/10 05:44:34;;;;;;;;;;;;;;;46.15;6.34;95654.03;4984654;28;19929;-80
2021/05/10 05:47:02;;;;;;;;;;;;;;;45.81;6.43;95652.00;4986739;28;19921;-80
2021/05/10 05:49:27;;;;;;;;;;;;;;;46.30;6.36;95642.13;4987110;28;19940;-81
2021/05/10 05:51:52;;;;;;;;;;;;;;;46.73;6.05;95654.41;4986428;28;19985;-81
2021/05/10 05:54:18;;;;;;;;;;;;;;;46.55;6.21;95654.28;4987122;28;19925;-81
2021/05/10 05:56:43;;;;;;;;;;;;;;;46.80;5.77;95647.91;4989390;28;20432;-83
2021/05/10 05:59:09;;;;;;;;;;;;;;;46.77;6.31;95660.56;4989652;28;19980;-84
2021/05/10 06:01:34;;;;;;;;;;;;;;;46.67;6.24;95662.47;5098055;22;19906;-83
2021/05/10 06:04:00;;;;;;;;;;;;;;;46.15;6.05;95648.53;4991232;28;20420;-83
2021/05/10 06:06:26;;;;;;;;;;;;;;;46.29;6.06;95653.56;5032460;22;19922;-82
2021/05/10 06:08:51;;;;;;;;;;;;;;;46.25;6.55;95648.19;5001049;28;19928;-84
2021/05/10 06:11:22;;;;;;;;;;;;;;;45.77;6.35;95643.88;5002254;28;19925;-83
2021/05/10 06:14:09;;;;;;;;;;;;;;;45.30;7.05;95641.00;4997399;28;19949;-83
2021/05/10 06:16:35;;;;;;;;;;;;;;;44.65;7.24;95638.50;4987709;28;19980;-82
2021/05/10 06:19:00;;;;;;;;;;;;;;;43.31;7.94;95642.09;4982034;28;19918;-84
2021/05/10 06:21:26;;;;;;;;;;;;;;;41.87;8.33;95636.16;4982477;28;19922;-84
2021/05/10 06:23:52;;;;;;;;;;;;;;;41.35;8.84;95631.06;5005324;22;19917;-82
2021/05/10 06:26:17;;;;;;;;;;;;;;;40.05;9.64;95621.19;4996780;28;19930;-83
2021/05/10 06:28:43;;;;;;;;;;;;;;;39.44;10.19;95624.31;5124002;22;20313;-83
2021/05/10 06:31:27;;;;;;;;;;;;;;;37.91;10.94;95622.03;4985631;28;19977;-83
2021/05/10 06:33:52;;;;;;;;;;;;;;;36.74;11.63;95627.91;4993203;28;19918;-83
2021/05/10 06:36:17;;;;;;;;;;;;;;;35.88;12.36;95615.00;4985354;28;19918;-83
2021/05/10 06:39:01;;;;;;;;;;;;;;;33.96;13.97;95624.22;4985231;28;19958;-83
2021/05/10 06:41:27;;;;;;;;;;;;;;;32.90;14.79;95620.41;4965329;28;19922;-84
2021/05/10 06:43:52;;;;;;;;;;;;;;;32.22;15.34;95622.41;4974919;28;19918;-81
2021/05/10 06:46:17;;;;;;;;;;;;;;;31.97;15.65;95612.97;4987203;28;19917;-84
2021/05/10 06:48:42;;;;;;;;;;;;;;;31.41;16.07;95610.44;4986109;28;19933;-83
2021/05/10 06:51:23;;;;;;;;;;;;;;;30.99;16.62;95610.84;4990142;28;20442;-83
2021/05/10 06:54:03;;;;;;;;;;;;;;;30.40;17.30;95608.75;4987183;28;19918;-83
2021/05/10 06:59:04;;;;;;;;;;;;;;;29.05;18.24;95603.63;4254418;23;19930;-83
2021/05/10 07:01:29;;;;;;;;;;;;;;;28.45;18.96;95604.88;4993682;28;19928;-81
2021/05/10 07:03:54;;;;;;;;;;;;;;;27.62;19.99;95600.09;4992245;28;19929;-82
2021/05/10 07:06:20;;;;;;;;;;;;;;;27.03;20.34;95602.66;4991234;28;20305;-82
2021/05/10 07:08:45;;;;;;;;;;;;;;;26.99;20.71;95596.31;4998753;28;19926;-81
2021/05/10 07:11:11;;;;;;;;;;;;;;;27.01;20.71;95602.97;5011339;28;19972;-81
2021/05/10 07:13:36;;;;;;;;;;;;;;;26.78;20.90;95594.31;5001762;28;19918;-83
2021/05/10 07:16:01;;;;;;;;;;;;;;;26.75;20.83;95589.63;4999262;28;19968;-83
2021/05/10 07:18:27;;;;;;;;;;;;;;;26.88;21.28;95599.34;5002090;28;19918;-82
2021/05/10 07:20:52;;;;;;;;;;;;;;;26.50;21.04;95593.84;4994546;28;19918;-83
2021/05/10 07:23:17;;;;;;;;;;;;;;;25.85;21.72;95593.88;4975535;28;19921;-83
2021/05/10 07:25:46;;;;;;;;;;;;;;;25.47;22.40;95593.56;4975952;28;19924;-83
2021/05/10 07:28:12;;;;;;;;;;;;;;;25.20;22.39;95597.19;4988967;28;19961;-83
2021/05/10 07:30:38;;;;;;;;;;;;;;;25.29;23.10;95598.81;4989743;28;19952;-83
2021/05/10 07:33:03;;;;;;;;;;;;;;;25.24;22.64;95588.31;4997055;28;19921;-83
2021/05/10 07:35:29;;;;;;;;;;;;;;;25.40;23.43;95596.69;5013312;28;19922;-83
2021/05/10 07:37:54;;;;;;;;;;;;;;;25.07;23.11;95596.97;5002041;28;19928;-82
2021/05/10 07:40:22;;;;;;;;;;;;;;;25.25;22.91;95591.75;4967605;28;20391;-82
2021/05/10 07:45:15;;;;;;;;;;;;;;;25.16;23.34;95596.22;5007173;28;19972;-84
2021/05/10 07:47:40;;;;;;;;;;;;;;;24.95;23.76;95588.72;5008314;28;19918;-82
2021/05/10 07:50:06;;;;;;;;;;;;;;;24.89;23.11;95589.13;5008078;28;19928;-82
2021/05/10 07:52:31;;;;;;;;;;;;;;;24.60;23.65;95586.94;5009122;28;19918;-82
2021/05/10 07:54:56;;;;;;;;;;;;;;;23.65;25.79;95570.84;5005817;28;19913;-83
2021/05/10 07:57:22;;;;;;;;;;;;;;;23.40;25.89;95587.22;5004430;28;19922;-82
2021/05/10 07:59:51;;;;;;;;;;;;;;;23.49;25.51;95585.47;5007707;28;19917;-82
2021/05/10 08:02:22;;;;;;;;;;;;;;;23.57;26.22;95582.91;5022410;28;19928;-81
2021/05/10 08:04:48;;;;;;;;;;;;;;;23.64;25.60;95577.22;5008721;28;19917;-82
2021/05/10 08:07:14;;;;;;;;;;;;;;;23.44;25.46;95580.25;5013744;28;19968;-84
2021/05/10 08:09:39;;;;;;;;;;;;;;;22.92;26.10;95571.59;4993169;28;20156;-79
2021/05/10 08:12:06;;;;;;;;;;;;;;;22.69;26.65;95574.06;5014140;28;19925;-83
2021/05/10 08:14:31;;;;;;;;;;;;;;;22.82;26.44;95579.72;5015137;28;19918;-81
2021/05/10 08:16:59;;;;;;;;;;;;;;;23.04;26.12;95564.75;5011396;28;19924;-81
2021/05/10 08:19:25;;;;;;;;;;;;;;;23.30;26.27;95566.97;5010158;28;20315;-81
2021/05/10 08:21:50;;;;;;;;;;;;;;;23.47;25.37;95553.13;5011689;28;20492;-81
2021/05/10 08:24:16;;;;;;;;;;;;;;;23.33;25.64;95553.88;5010863;28;19917;-81
2021/05/10 08:26:41;;;;;;;;;;;;;;;23.11;26.17;95550.34;5011119;28;19918;-81
2021/05/10 08:29:07;;;;;;;;;;;;;;;23.11;26.30;95548.47;5026233;28;19993;-81
2021/05/10 08:31:32;;;;;;;;;;;;;;;22.89;26.61;95545.66;5010012;28;19921;-81
2021/05/10 08:33:58;;;;;;;;;;;;;;;22.77;26.74;95544.22;5010682;28;19928;-81
2021/05/10 08:36:23;;;;;;;;;;;;;;;22.72;26.84;95533.72;5008625;28;19941;-81
2021/05/10 08:38:50;;;;;;;;;;;;;;;22.80;26.57;95536.78;5008916;28;19924;-79
2021/05/10 08:41:16;;;;;;;;;;;;;;;22.82;26.56;95530.13;5009739;28;19997;-79
2021/05/10 08:43:41;;;;;;;;;;;;;;;22.87;26.82;95526.59;5012076;28;20016;-79
2021/05/10 08:46:07;;;;;;;;;;;;;;;22.90;26.87;95520.72;5024673;28;19921;-81
2021/05/10 08:48:32;;;;;;;;;;;;;;;23.06;26.55;95524.66;5012122;28;20059;-82
2021/05/10 08:50:58;;;;;;;;;;;;;;;23.09;26.29;95513.47;5013616;28;19918;-82
2021/05/10 08:53:39;;;;;;;;;;;;;;;23.19;26.32;95515.94;5001254;28;19917;-81
2021/05/10 08:56:05;;;;;;;;;;;;;;;23.20;25.77;95498.94;5014322;28;19922;-82
2021/05/10 08:59:00;;;;;;;;;;;;;;;23.12;26.27;95523.50;5014008;28;19948;-80
2021/05/10 09:01:25;;;;;;;;;;;;;;;22.87;26.54;95505.38;4997326;28;20019;-82
2021/05/10 09:03:50;;;;;;;;;;;;;;;22.84;26.68;95500.69;4996062;28;19945;-80
2021/05/10 09:06:31;;;;;;;;;;;;;;;22.59;27.27;95505.28;5007914;28;19940;-80
2021/05/10 09:09:03;;;;;;;;;;;;;;;22.38;27.77;95488.94;5024313;28;19944;-81
2021/05/10 09:11:29;;;;;;;;;;;;;;;22.28;28.06;95504.19;5020448;28;19921;-83
2021/05/10 09:13:55;;;;;;;;;;;;;;;22.15;28.25;95501.22;5009918;28;19928;-83
2021/05/10 09:16:20;;;;;;;;;;;;;;;22.24;28.00;95492.59;5023200;28;20013;-82
2021/05/10 09:18:51;;;;;;;;;;;;;;;22.33;28.10;95490.91;4994998;28;19926;-81
2021/05/10 09:21:21;;;;;;;;;;;;;;;22.09;28.13;95498.91;5008580;28;19929;-82
2021/05/10 09:23:46;;;;;;;;;;;;;;;21.99;28.74;95481.31;5006964;28;19928;-83
2021/05/10 09:26:12;;;;;;;;;;;;;;;22.07;28.53;95474.59;5025927;28;20457;-82
2021/05/10 09:28:41;;;;;;;;;;;;;;;22.12;28.80;95470.00;5007470;28;19918;-82
2021/05/10 09:31:07;;;;;;;;;;;;;;;21.81;29.16;95467.00;5012102;28;19922;-81
2021/05/10 09:33:33;;;;;;;;;;;;;;;21.95;29.31;95460.97;4991507;28;19917;-82
2021/05/10 09:36:05;;;;;;;;;;;;;;;22.08;28.68;95454.97;5009213;28;19976;-83
2021/05/10 09:38:31;;;;;;;;;;;;;;;21.62;30.18;95465.38;4992509;28;20008;-82
2021/05/10 09:41:30;;;;;;;;;;;;;;;21.64;29.90;95452.66;5008637;28;20022;-82
2021/05/10 09:43:56;;;;;;;;;;;;;;;21.75;29.81;95448.81;4995549;28;19925;-83
2021/05/10 09:46:22;;;;;;;;;;;;;;;21.88;29.59;95442.78;5010948;28;19917;-83
2021/05/10 09:48:50;;;;;;;;;;;;;;;21.66;30.03;95448.69;5007122;28;20344;-84
2021/05/10 09:51:16;;;;;;;;;;;;;;;21.76;30.27;95455.66;4993404;28;20374;-82
2021/05/10 09:53:42;;;;;;;;;;;;;;;21.78;30.22;95442.94;5009695;28;20439;-83
2021/05/10 09:56:30;;;;;;;;;;;;;;;21.82;30.12;95441.31;5012011;28;19918;-83
2021/05/10 09:59:01;;;;;;;;;;;;;;;21.84;30.19;95441.81;5006446;28;19917;-82
2021/05/10 10:01:36;;;;;;;;;;;;;;;21.76;30.65;95429.97;5007017;28;19917;-83
2021/05/10 10:04:02;;;;;;;;;;;;;;;21.92;30.74;95430.56;5008238;28;19925;-83
2021/05/10 10:06:30;;;;;;;;;;;;;;;21.77;30.67;95439.50;5025072;28;19918;-83
2021/05/10 10:09:05;;;;;;;;;;;;;;;21.78;30.28;95427.84;5008935;28;19941;-82
2021/05/10 10:11:30;;;;;;;;;;;;;;;21.86;30.01;95426.41;5000471;28;19921;-81
2021/05/10 10:13:56;;;;;;;;;;;;;;;21.82;30.44;95422.78;5010396;28;19969;-82
2021/05/10 10:16:22;;;;;;;;;;;;;;;21.62;30.81;95420.41;5008470;28;19941;-82
2021/05/10 10:18:47;;;;;;;;;;;;;;;21.37;31.21;95422.31;5006750;28;19918;-82
2021/05/10 10:21:13;;;;;;;;;;;;;;;21.49;30.97;95425.34;4991529;28;19941;-82
2021/05/10 10:23:38;;;;;;;;;;;;;;;21.62;30.81;95423.81;5001241;28;19922;-81
2021/05/10 10:26:09;;;;;;;;;;;;;;;21.48;31.14;95423.00;5011140;28;19921;-82
2021/05/10 10:28:35;;;;;;;;;;;;;;;21.42;30.97;95424.91;5017920;28;19933;-81
2021/05/10 10:31:04;;;;;;;;;;;;;;;21.51;30.97;95411.84;5018443;28;19925;-78
2021/05/10 10:33:31;;;;;;;;;;;;;;;21.70;31.13;95414.47;5004192;28;19924;-79
2021/05/10 10:35:56;;;;;;;;;;;;;;;21.32;31.50;95421.63;5001911;28;19925;-82
2021/05/10 10:38:25;;;;;;;;;;;;;;;21.17;31.59;95411.97;5006683;28;19921;-83
2021/05/10 10:41:11;;;;;;;;;;;;;;;21.33;31.60;95404.69;4989896;28;19922;-83
2021/05/10 10:43:36;;;;;;;;;;;;;;;21.47;31.71;95398.38;5042524;23;19930;-81
2021/05/10 10:46:17;;;;;;;;;;;;;;;21.34;31.85;95400.94;4989140;28;19921;-82
2021/05/10 10:48:43;;;;;;;;;;;;;;;21.27;31.22;95401.28;5003824;28;20004;-82
2021/05/10 10:51:08;;;;;;;;;;;;;;;21.38;31.29;95384.22;5006679;28;20249;-82
2021/05/10 10:53:40;;;;;;;;;;;;;;;21.43;31.37;95389.44;5006502;28;19918;-82
2021/05/10 10:56:05;;;;;;;;;;;;;;;21.46;31.18;95383.56;5031445;28;20024;-83
2021/05/10 10:58:31;;;;;;;;;;;;;;;21.41;31.62;95386.28;4997112;28;20324;-82
2021/05/10 11:00:56;;;;;;;;;;;;;;;21.24;31.11;95385.97;5006941;28;19918;-82
2021/05/10 11:03:25;;;;;;;;;;;;;;;21.26;30.97;95375.91;5005700;28;19917;-82
2021/05/10 11:05:50;;;;;;;;;;;;;;;21.15;31.80;95387.66;5006674;28;19917;-83
2021/05/10 11:08:15;;;;;;;;;;;;;;;21.29;31.22;95380.63;4996568;28;20316;-83
2021/05/10 11:11:07;;;;;;;;;;;;;;;21.26;31.46;95368.75;5009545;28;19925;-83
2021/05/10 11:13:33;;;;;;;;;;;;;;;21.19;31.17;95363.03;5004186;28;19918;-82
2021/05/10 11:15:59;;;;;;;;;;;;;;;21.25;31.53;95363.75;4990485;28;19973;-82
2021/05/10 11:18:37;;;;;;;;;;;;;;;21.28;31.77;95355.25;5003481;28;20001;-83
2021/05/10 11:21:10;;;;;;;;;;;;;;;20.98;31.94;95361.69;5006373;28;19917;-83
2021/05/10 11:23:41;;;;;;;;;;;;;;;21.08;31.80;95352.84;4990285;28;19925;-82
2021/05/10 11:26:07;;;;;;;;;;;;;;;21.16;31.37;95344.28;5006038;28;19960;-82
2021/05/10 11:28:32;;;;;;;;;;;;;;;21.36;31.18;95333.47;5006107;28;19921;-82
2021/05/10 11:30:59;;;;;;;;;;;;;;;21.52;30.39;95328.72;5004863;28;19952;-82
2021/05/10 11:33:43;;;;;;;;;;;;;;;21.71;30.48;95328.69;5007039;28;19918;-82
2021/05/10 11:36:08;;;;;;;;;;;;;;;21.81;30.21;95328.53;5005095;28;19945;-81
2021/05/10 11:38:34;;;;;;;;;;;;;;;21.84;30.25;95318.16;5024812;28;19999;-83
2021/05/10 11:40:59;;;;;;;;;;;;;;;21.98;30.29;95314.75;5021275;28;19913;-82
2021/05/10 11:43:25;;;;;;;;;;;;;;;21.93;30.02;95312.97;4995665;28;19921;-81
2021/05/10 11:45:52;;;;;;;;;;;;;;;21.89;30.32;95306.69;5013948;28;19917;-81
2021/05/10 11:48:37;;;;;;;;;;;;;;;22.07;29.87;95308.50;5004434;28;19913;-81
2021/05/10 11:51:02;;;;;;;;;;;;;;;22.13;29.21;95307.38;5005334;28;19987;-82
2021/05/10 11:53:27;;;;;;;;;;;;;;;22.23;29.37;95295.78;5006470;28;19917;-81
2021/05/10 11:55:58;;;;;;;;;;;;;;;22.24;29.50;95307.94;5011767;28;19960;-82
2021/05/10 11:58:41;;;;;;;;;;;;;;;22.24;29.36;95297.34;5023454;28;19925;-81
2021/05/10 12:03:41;;;;;;;;;;;;;;;22.29;29.71;95294.63;5406608;22;19922;-82
2021/05/10 12:06:25;;;;;;;;;;;;;;;22.23;28.79;95290.47;5002265;28;19928;-82
2021/05/10 12:08:50;;;;;;;;;;;;;;;22.29;29.24;95299.13;5003483;28;19968;-83
2021/05/10 12:11:22;;;;;;;;;;;;;;;22.40;28.52;95295.97;4983008;28;19968;-83
2021/05/10 12:13:47;;;;;;;;;;;;;;;22.52;28.25;95295.50;4996473;23;19933;-82
2021/05/10 12:16:13;;;;;;;;;;;;;;;22.53;28.65;95305.03;4999275;28;19922;-83
2021/05/10 12:19:13;;;;;;;;;;;;;;;22.44;27.79;95272.31;4988416;28;19976;-82
2021/05/10 12:21:38;;;;;;;;;;;;;;;22.38;27.58;95276.16;4981447;28;19922;-83
2021/05/10 12:24:04;;;;;;;;;;;;;;;22.39;27.01;95267.13;4983309;28;20228;-83
2021/05/10 12:26:29;;;;;;;;;;;;;;;22.31;26.37;95270.50;4981996;28;19918;-81
2021/05/10 12:28:54;;;;;;;;;;;;;;;22.40;27.14;95271.34;4981951;28;19941;-83
2021/05/10 12:31:20;;;;;;;;;;;;;;;22.46;26.67;95262.25;4981329;28;19918;-83
2021/05/10 12:33:48;;;;;;;;;;;;;;;22.55;26.37;95260.44;4981687;28;19918;-83
2021/05/10 12:36:13;;;;;;;;;;;;;;;22.62;26.61;95255.56;4981548;28;19921;-82
2021/05/10 12:38:39;;;;;;;;;;;;;;;22.70;26.30;95257.50;4979909;28;20216;-83
2021/05/10 12:41:08;;;;;;;;;;;;;;;22.73;25.16;95256.88;4981021;28;19941;-83
2021/05/10 12:43:54;;;;;;;;;;;;;;;22.72;24.37;95244.72;4966520;28;19922;-83
2021/05/10 12:46:20;;;;;;;;;;;;;;;22.58;24.83;95249.25;4988487;28;20091;-82
2021/05/10 12:51:23;;;;;;;;;;;;;;;22.47;24.94;95239.97;5576669;22;19949;-84
2021/05/10 12:53:54;;;;;;;;;;;;;;;22.50;24.51;95242.00;5010379;28;19921;-83
2021/05/10 12:56:20;;;;;;;;;;;;;;;22.52;24.26;95228.47;5001399;28;19918;-82
2021/05/10 13:01:17;;;;;;;;;;;;;;;22.72;24.81;95233.31;5220127;23;19932;-82
2021/05/10 13:03:43;;;;;;;;;;;;;;;22.61;23.97;95222.16;4986258;28;19944;-83
2021/05/10 13:06:09;;;;;;;;;;;;;;;22.67;24.24;95215.66;4960620;28;19953;-81
2021/05/10 13:08:45;;;;;;;;;;;;;;;22.75;23.25;95207.00;4957281;28;20286;-82
2021/05/10 13:11:11;;;;;;;;;;;;;;;22.72;23.73;95207.59;4974159;28;19950;-82
2021/05/10 13:16:24;;;;;;;;;;;;;;;22.57;23.23;95215.88;4975625;28;19918;-81
2021/05/10 13:18:59;;;;;;;;;;;;;;;22.58;22.81;95216.66;4972700;28;19918;-82
2021/05/10 13:27:41;;;;;;;;;;;;;;;22.67;22.59;95197.13;4972937;28;19925;-83
2021/05/10 13:32:55;;;;;;;;;;;;;;;22.66;21.83;95186.81;4976702;28;20353;-78
2021/05/10 13:38:50;;;;;;;;;;;;;;;22.77;22.50;95177.53;4947058;28;20397;-82